IBE0212 KJFK-LEMD
Flight info
| Callsign | IBE0212 |
|---|---|
| Flight time | N/A |
| Altitude | 39000 |
| Route | HAPIE DCT YAHOO DCT VITOL/M084F390 N21A CARAC DCT JEBBY DCT 43N050W 44N030W/M084F410 43N020W DCT BANAL/N0487F410 DCT BARDI/N0492F400 M191 RIDAV |
| Aircraft | A359/H-SDE2E3GHIJ1J3J4J5LM1ORWXY/LB1D1 |
Departure
| Time | 2026-05-03 20:15 |
|---|---|
| Airport | John F. Kennedy International Airport (KJFK) |
Arrival
| Time | N/A |
|---|---|
| Airport | Adolfo Suárez Madrid–Barajas Airport (LEMD) |
| Time | Latitude | Longitude | Altitude | Speed | Heading |
|---|---|---|---|---|---|
| 2026-05-03 20:15 | 40.50404 | -73.45206 | 11345 ft | 373 kts | 106° |
| 2026-05-03 20:15 | 40.49852 | -73.42979 | 11569 ft | 384 kts | 106° |
| 2026-05-03 20:15 | 40.49023 | -73.39639 | 12041 ft | 395 kts | 106° |
| 2026-05-03 20:15 | 40.48151 | -73.36140 | 12656 ft | 402 kts | 107° |
| 2026-05-03 20:16 | 40.47272 | -73.32618 | 13300 ft | 408 kts | 107° |
| 2026-05-03 20:16 | 40.46386 | -73.29069 | 13922 ft | 413 kts | 107° |
| 2026-05-03 20:16 | 40.45482 | -73.25456 | 14521 ft | 418 kts | 107° |
| 2026-05-03 20:16 | 40.44571 | -73.21813 | 15136 ft | 422 kts | 107° |
| 2026-05-03 20:17 | 40.43651 | -73.18139 | 15743 ft | 425 kts | 107° |
| 2026-05-03 20:17 | 40.42723 | -73.14436 | 16350 ft | 430 kts | 107° |
| 2026-05-03 20:17 | 40.41786 | -73.10705 | 16993 ft | 434 kts | 107° |
| 2026-05-03 20:17 | 40.40835 | -73.06921 | 17646 ft | 438 kts | 107° |
| 2026-05-03 20:18 | 40.39974 | -73.03072 | 18283 ft | 441 kts | 101° |
| 2026-05-03 20:18 | 40.39527 | -72.99135 | 18833 ft | 443 kts | 90° |
| 2026-05-03 20:18 | 40.39627 | -72.95062 | 19415 ft | 442 kts | 78° |
| 2026-05-03 20:18 | 40.40220 | -72.91120 | 19978 ft | 443 kts | 72° |
| 2026-05-03 20:19 | 40.41000 | -72.87250 | 20517 ft | 446 kts | 70° |
| 2026-05-03 20:19 | 40.41905 | -72.83282 | 21068 ft | 449 kts | 69° |
| 2026-05-03 20:19 | 40.42838 | -72.79358 | 21633 ft | 453 kts | 68° |
| 2026-05-03 20:19 | 40.43780 | -72.75392 | 22183 ft | 457 kts | 69° |
| 2026-05-03 20:20 | 40.44715 | -72.71384 | 22736 ft | 462 kts | 69° |
| 2026-05-03 20:20 | 40.45637 | -72.67361 | 23278 ft | 466 kts | 69° |
| 2026-05-03 20:20 | 40.46569 | -72.63233 | 23781 ft | 470 kts | 70° |
| 2026-05-03 20:20 | 40.47496 | -72.59087 | 24248 ft | 474 kts | 70° |
| 2026-05-03 20:21 | 40.48415 | -72.54961 | 24639 ft | 478 kts | 71° |
| 2026-05-03 20:21 | 40.49360 | -72.50700 | 25084 ft | 483 kts | 71° |
| 2026-05-03 20:21 | 40.50292 | -72.46495 | 25513 ft | 486 kts | 71° |
| 2026-05-03 20:21 | 40.51239 | -72.42216 | 25936 ft | 490 kts | 71° |
| 2026-05-03 20:22 | 40.52193 | -72.37904 | 26361 ft | 494 kts | 71° |
| 2026-05-03 20:22 | 40.53154 | -72.33551 | 26789 ft | 498 kts | 71° |
| 2026-05-03 20:22 | 40.54131 | -72.29116 | 27220 ft | 501 kts | 71° |
| 2026-05-03 20:22 | 40.55104 | -72.24694 | 27633 ft | 505 kts | 71° |
| 2026-05-03 20:23 | 40.56085 | -72.20228 | 27958 ft | 511 kts | 72° |
| 2026-05-03 20:23 | 40.57063 | -72.15762 | 28356 ft | 515 kts | 72° |
| 2026-05-03 20:23 | 40.58053 | -72.11237 | 28776 ft | 518 kts | 72° |
| 2026-05-03 20:23 | 40.59059 | -72.06621 | 29212 ft | 520 kts | 72° |
| 2026-05-03 20:24 | 40.60049 | -72.02074 | 29591 ft | 523 kts | 72° |
| 2026-05-03 20:24 | 40.61051 | -71.97457 | 29919 ft | 527 kts | 72° |
| 2026-05-03 20:24 | 40.62061 | -71.92799 | 30211 ft | 530 kts | 72° |
| 2026-05-03 20:24 | 40.63088 | -71.88053 | 30437 ft | 534 kts | 72° |
| 2026-05-03 20:25 | 40.64093 | -71.83396 | 30649 ft | 538 kts | 72° |
| 2026-05-03 20:25 | 40.65130 | -71.78582 | 30914 ft | 541 kts | 73° |
| 2026-05-03 20:25 | 40.66153 | -71.73817 | 31172 ft | 543 kts | 73° |
| 2026-05-03 20:25 | 40.67182 | -71.69017 | 31510 ft | 544 kts | 73° |
| 2026-05-03 20:26 | 40.68198 | -71.64268 | 31856 ft | 544 kts | 73° |
| 2026-05-03 20:26 | 40.69232 | -71.59420 | 32181 ft | 545 kts | 73° |
| 2026-05-03 20:26 | 40.70256 | -71.54611 | 32500 ft | 545 kts | 73° |
| 2026-05-03 20:26 | 40.71267 | -71.49851 | 32857 ft | 545 kts | 73° |
| 2026-05-03 20:27 | 40.72295 | -71.45002 | 33168 ft | 545 kts | 73° |
| 2026-05-03 20:27 | 40.73303 | -71.40237 | 33444 ft | 546 kts | 74° |
| 2026-05-03 20:27 | 40.74322 | -71.35409 | 33725 ft | 547 kts | 74° |
| 2026-05-03 20:27 | 40.75339 | -71.30580 | 33976 ft | 547 kts | 74° |
| 2026-05-03 20:28 | 40.76368 | -71.25681 | 34196 ft | 548 kts | 74° |
| 2026-05-03 20:28 | 40.77385 | -71.20830 | 34413 ft | 548 kts | 74° |
| 2026-05-03 20:28 | 40.78398 | -71.15983 | 34641 ft | 549 kts | 74° |
| 2026-05-03 20:28 | 40.79411 | -71.11131 | 34840 ft | 550 kts | 74° |
| 2026-05-03 20:29 | 40.80416 | -71.06302 | 35048 ft | 550 kts | 74° |
| 2026-05-03 20:29 | 40.81428 | -71.01426 | 35266 ft | 551 kts | 74° |
| 2026-05-03 20:29 | 40.82440 | -70.96543 | 35566 ft | 549 kts | 74° |
| 2026-05-03 20:29 | 40.83440 | -70.91703 | 35807 ft | 548 kts | 75° |
| 2026-05-03 20:30 | 40.84444 | -70.86834 | 35946 ft | 550 kts | 75° |
| 2026-05-03 20:30 | 40.86454 | -70.77055 | 36159 ft | 554 kts | 75° |
| 2026-05-03 20:30 | 40.87460 | -70.72145 | 36357 ft | 554 kts | 75° |
| 2026-05-03 20:31 | 40.88469 | -70.67203 | 36536 ft | 554 kts | 75° |
| 2026-05-03 20:31 | 40.89469 | -70.62294 | 36715 ft | 554 kts | 75° |
| 2026-05-03 20:31 | 40.90467 | -70.57386 | 36885 ft | 554 kts | 75° |
| 2026-05-03 20:31 | 40.91463 | -70.52475 | 37016 ft | 555 kts | 75° |
| 2026-05-03 20:32 | 40.92463 | -70.47532 | 37113 ft | 556 kts | 75° |
| 2026-05-03 20:32 | 40.93460 | -70.42594 | 37325 ft | 555 kts | 75° |
| 2026-05-03 20:32 | 40.94458 | -70.37637 | 37546 ft | 554 kts | 75° |
| 2026-05-03 20:32 | 40.95444 | -70.32729 | 37680 ft | 555 kts | 75° |
| 2026-05-03 20:33 | 40.96435 | -70.27785 | 37813 ft | 555 kts | 75° |
| 2026-05-03 20:33 | 40.97424 | -70.22834 | 37937 ft | 556 kts | 75° |
| 2026-05-03 20:33 | 40.98407 | -70.17904 | 38055 ft | 556 kts | 76° |
| 2026-05-03 20:33 | 40.99392 | -70.12955 | 38166 ft | 556 kts | 76° |
| 2026-05-03 20:34 | 41.00374 | -70.08006 | 38287 ft | 557 kts | 76° |
| 2026-05-03 20:34 | 41.01359 | -70.03031 | 38406 ft | 557 kts | 76° |
| 2026-05-03 20:34 | 41.02338 | -69.98069 | 38513 ft | 557 kts | 76° |
| 2026-05-03 20:35 | 41.04284 | -69.88176 | 38706 ft | 557 kts | 76° |
| 2026-05-03 20:35 | 41.06235 | -69.78213 | 38798 ft | 558 kts | 76° |
| 2026-05-03 20:36 | 41.08631 | -69.68416 | 38804 ft | 560 kts | 70° |
| 2026-05-03 20:36 | 41.11275 | -69.58683 | 38801 ft | 560 kts | 70° |
| 2026-05-03 20:37 | 41.13938 | -69.48973 | 38792 ft | 560 kts | 70° |
| 2026-05-03 20:37 | 41.16588 | -69.39256 | 38798 ft | 560 kts | 70° |
| 2026-05-03 20:38 | 41.19213 | -69.29560 | 38793 ft | 559 kts | 70° |
| 2026-05-03 20:38 | 41.21837 | -69.19816 | 38790 ft | 559 kts | 71° |
| 2026-05-03 20:39 | 41.24448 | -69.10088 | 38782 ft | 559 kts | 71° |
| 2026-05-03 20:39 | 41.27055 | -69.00332 | 38792 ft | 559 kts | 71° |
| 2026-05-03 20:40 | 41.29629 | -68.90665 | 38770 ft | 558 kts | 71° |
| 2026-05-03 20:40 | 41.32224 | -68.80880 | 38754 ft | 558 kts | 71° |
| 2026-05-03 20:41 | 41.34797 | -68.71138 | 38752 ft | 558 kts | 71° |
| 2026-05-03 20:41 | 41.37364 | -68.61384 | 38751 ft | 558 kts | 71° |
| 2026-05-03 20:42 | 41.39928 | -68.51598 | 38729 ft | 558 kts | 72° |
| 2026-05-03 20:42 | 41.42474 | -68.41846 | 38734 ft | 558 kts | 72° |
| 2026-05-03 20:43 | 41.45017 | -68.32060 | 38723 ft | 558 kts | 72° |
| 2026-05-03 20:43 | 41.47543 | -68.22304 | 38722 ft | 558 kts | 72° |
| 2026-05-03 20:44 | 41.50071 | -68.12498 | 38739 ft | 558 kts | 72° |
| 2026-05-03 20:44 | 41.52587 | -68.02703 | 38708 ft | 558 kts | 72° |
| 2026-05-03 20:45 | 41.55091 | -67.92912 | 38702 ft | 557 kts | 72° |
| 2026-05-03 20:45 | 41.57584 | -67.83122 | 38699 ft | 557 kts | 73° |
| 2026-05-03 20:46 | 41.60067 | -67.73334 | 38688 ft | 557 kts | 73° |
| 2026-05-03 20:46 | 41.62547 | -67.63518 | 38683 ft | 556 kts | 73° |
| 2026-05-03 20:47 | 41.65011 | -67.53722 | 38649 ft | 556 kts | 73° |
| 2026-05-03 20:47 | 41.67467 | -67.43920 | 38662 ft | 557 kts | 73° |
| 2026-05-03 20:48 | 41.69925 | -67.34065 | 38651 ft | 557 kts | 73° |
| 2026-05-03 20:48 | 41.72356 | -67.24283 | 38650 ft | 557 kts | 73° |
| 2026-05-03 20:49 | 41.74806 | -67.14381 | 38626 ft | 557 kts | 74° |
| 2026-05-03 20:49 | 41.77234 | -67.04523 | 38627 ft | 557 kts | 74° |
| 2026-05-03 20:50 | 41.79608 | -66.94637 | 38618 ft | 557 kts | 76° |
| 2026-05-03 20:50 | 41.81652 | -66.84632 | 38610 ft | 556 kts | 78° |
| 2026-05-03 20:51 | 41.83629 | -66.74594 | 38603 ft | 557 kts | 78° |
| 2026-05-03 20:51 | 41.85645 | -66.64585 | 38617 ft | 557 kts | 77° |
| 2026-05-03 20:52 | 41.87688 | -66.54556 | 38590 ft | 557 kts | 78° |
| 2026-05-03 20:52 | 41.89724 | -66.44546 | 38581 ft | 558 kts | 78° |
| 2026-05-03 20:53 | 41.91420 | -66.36162 | 38580 ft | 558 kts | 78° |
| 2026-05-03 20:53 | 41.93453 | -66.26061 | 38564 ft | 558 kts | 78° |
| 2026-05-03 20:54 | 41.95456 | -66.16050 | 38568 ft | 559 kts | 78° |
| 2026-05-03 20:54 | 41.98478 | -66.00857 | 38560 ft | 561 kts | 78° |
| 2026-05-03 20:55 | 42.00476 | -65.90749 | 38542 ft | 560 kts | 78° |
| 2026-05-03 20:55 | 42.02474 | -65.80586 | 38540 ft | 561 kts | 78° |
| 2026-05-03 20:56 | 42.04462 | -65.70429 | 38531 ft | 561 kts | 78° |
| 2026-05-03 20:56 | 42.06439 | -65.60269 | 38505 ft | 561 kts | 79° |
| 2026-05-03 20:57 | 42.08409 | -65.50095 | 38523 ft | 563 kts | 79° |
| 2026-05-03 20:57 | 42.10372 | -65.39904 | 38517 ft | 563 kts | 79° |
| 2026-05-03 20:58 | 42.12332 | -65.29674 | 38470 ft | 563 kts | 79° |
| 2026-05-03 20:58 | 42.14278 | -65.19470 | 38494 ft | 563 kts | 79° |
| 2026-05-03 20:59 | 42.16222 | -65.09212 | 38492 ft | 564 kts | 79° |
| 2026-05-03 20:59 | 42.18151 | -64.98988 | 38499 ft | 563 kts | 79° |
| 2026-05-03 21:00 | 42.19743 | -64.90507 | 38469 ft | 562 kts | 79° |
| 2026-05-03 21:00 | 42.21977 | -64.78543 | 38462 ft | 562 kts | 79° |
| 2026-05-03 21:01 | 42.23879 | -64.68295 | 38462 ft | 562 kts | 79° |
| 2026-05-03 21:01 | 42.25765 | -64.58077 | 38431 ft | 562 kts | 79° |
| 2026-05-03 21:02 | 42.27644 | -64.47840 | 38432 ft | 561 kts | 79° |
| 2026-05-03 21:02 | 42.29506 | -64.37648 | 38403 ft | 559 kts | 80° |
| 2026-05-03 21:03 | 42.31356 | -64.27459 | 38407 ft | 558 kts | 80° |
| 2026-05-03 21:03 | 42.33194 | -64.17280 | 38376 ft | 558 kts | 80° |
| 2026-05-03 21:04 | 42.35026 | -64.07081 | 38350 ft | 558 kts | 80° |
| 2026-05-03 21:04 | 42.36852 | -63.96864 | 38341 ft | 558 kts | 81° |
| 2026-05-03 21:05 | 42.38663 | -63.86672 | 38326 ft | 558 kts | 81° |
| 2026-05-03 21:05 | 42.40467 | -63.76457 | 38315 ft | 558 kts | 81° |
| 2026-05-03 21:06 | 42.42261 | -63.66242 | 38297 ft | 558 kts | 81° |
| 2026-05-03 21:06 | 42.44049 | -63.56013 | 38271 ft | 558 kts | 81° |
| 2026-05-03 21:07 | 42.45828 | -63.45768 | 38273 ft | 559 kts | 81° |
| 2026-05-03 21:07 | 42.47595 | -63.35538 | 38273 ft | 559 kts | 81° |